sensor_id;sensor_type;location;lat;lon;timestamp;pressure;altitude;pressure_sealevel;temperature;humidity
50268;BME280;36153;50.960;6.220;2024-01-10T00:04:55;101867.63;;;-1.88;48.57
50268;BME280;36153;50.960;6.220;2024-01-10T00:09:55;101869.16;;;-2.11;49.12
50268;BME280;36153;50.960;6.220;2024-01-10T00:14:57;101876.41;;;-2.15;49.46
50268;BME280;36153;50.960;6.220;2024-01-10T00:19:57;101870.03;;;-2.10;49.31
50268;BME280;36153;50.960;6.220;2024-01-10T00:24:57;101873.38;;;-2.11;49.58
50268;BME280;36153;50.960;6.220;2024-01-10T00:29:58;101865.44;;;-2.25;49.91
50268;BME280;36153;50.960;6.220;2024-01-10T00:34:58;101864.16;;;-2.19;49.89
50268;BME280;36153;50.960;6.220;2024-01-10T00:39:59;101860.31;;;-2.25;50.50
50268;BME280;36153;50.960;6.220;2024-01-10T00:44:59;101855.47;;;-2.32;50.71
50268;BME280;36153;50.960;6.220;2024-01-10T00:49:59;101859.31;;;-2.27;50.85
50268;BME280;36153;50.960;6.220;2024-01-10T00:54:59;101856.09;;;-2.24;50.40
50268;BME280;36153;50.960;6.220;2024-01-10T01:00:00;101855.47;;;-2.21;50.66
50268;BME280;36153;50.960;6.220;2024-01-10T01:05:00;101853.72;;;-2.22;50.79
50268;BME280;36153;50.960;6.220;2024-01-10T01:10:01;101846.81;;;-2.24;50.70
50268;BME280;36153;50.960;6.220;2024-01-10T01:15:01;101850.75;;;-2.27;50.49
50268;BME280;36153;50.960;6.220;2024-01-10T01:20:02;101848.31;;;-2.26;50.49
50268;BME280;36153;50.960;6.220;2024-01-10T01:25:05;101851.66;;;-2.27;50.54
50268;BME280;36153;50.960;6.220;2024-01-10T01:30:06;101853.44;;;-2.26;50.62
50268;BME280;36153;50.960;6.220;2024-01-10T01:35:07;101845.53;;;-2.29;50.31
50268;BME280;36153;50.960;6.220;2024-01-10T01:40:07;101851.66;;;-2.27;50.22
50268;BME280;36153;50.960;6.220;2024-01-10T01:45:08;101851.00;;;-2.34;50.24
50268;BME280;36153;50.960;6.220;2024-01-10T01:50:10;101839.63;;;-2.48;50.96
50268;BME280;36153;50.960;6.220;2024-01-10T01:55:10;101843.16;;;-2.57;51.08
50268;BME280;36153;50.960;6.220;2024-01-10T02:00:11;101845.47;;;-2.60;51.25
50268;BME280;36153;50.960;6.220;2024-01-10T02:05:11;101844.56;;;-2.60;51.48
50268;BME280;36153;50.960;6.220;2024-01-10T02:10:14;101841.75;;;-2.63;51.47
50268;BME280;36153;50.960;6.220;2024-01-10T02:15:14;101826.84;;;-2.59;51.22
50268;BME280;36153;50.960;6.220;2024-01-10T02:20:16;101829.16;;;-2.51;51.61
50268;BME280;36153;50.960;6.220;2024-01-10T02:25:21;101833.38;;;-2.52;51.64
50268;BME280;36153;50.960;6.220;2024-01-10T02:30:21;101833.38;;;-2.52;51.53
50268;BME280;36153;50.960;6.220;2024-01-10T02:35:22;101832.47;;;-2.52;51.71
50268;BME280;36153;50.960;6.220;2024-01-10T02:40:22;101815.66;;;-2.50;51.45
50268;BME280;36153;50.960;6.220;2024-01-10T02:45:22;101810.56;;;-2.50;51.74
50268;BME280;36153;50.960;6.220;2024-01-10T02:50:23;101809.53;;;-2.52;51.24
50268;BME280;36153;50.960;6.220;2024-01-10T02:55:23;101808.13;;;-2.49;51.50
50268;BME280;36153;50.960;6.220;2024-01-10T03:00:24;101810.94;;;-2.56;51.40
50268;BME280;36153;50.960;6.220;2024-01-10T03:05:26;101809.78;;;-2.60;51.86
50268;BME280;36153;50.960;6.220;2024-01-10T03:10:26;101803.13;;;-2.58;51.81
50268;BME280;36153;50.960;6.220;2024-01-10T03:15:26;101806.84;;;-2.64;51.89
50268;BME280;36153;50.960;6.220;2024-01-10T03:20:27;101804.41;;;-2.63;52.25
50268;BME280;36153;50.960;6.220;2024-01-10T03:25:27;101795.47;;;-2.68;52.31
50268;BME280;36153;50.960;6.220;2024-01-10T03:30:28;101790.25;;;-2.69;52.38
50268;BME280;36153;50.960;6.220;2024-01-10T03:35:28;101793.16;;;-2.75;52.74
50268;BME280;36153;50.960;6.220;2024-01-10T03:40:28;101787.31;;;-2.74;53.19
50268;BME280;36153;50.960;6.220;2024-01-10T03:45:28;101781.53;;;-2.82;53.08
50268;BME280;36153;50.960;6.220;2024-01-10T03:50:29;101783.47;;;-2.79;53.50
50268;BME280;36153;50.960;6.220;2024-01-10T03:55:30;101779.09;;;-2.90;53.54
50268;BME280;36153;50.960;6.220;2024-01-10T04:00:30;101783.59;;;-2.88;53.74
50268;BME280;36153;50.960;6.220;2024-01-10T04:05:31;101778.50;;;-2.88;53.33
50268;BME280;36153;50.960;6.220;2024-01-10T04:10:31;101763.16;;;-2.98;53.25
50268;BME280;36153;50.960;6.220;2024-01-10T04:15:32;101772.09;;;-2.93;52.72
50268;BME280;36153;50.960;6.220;2024-01-10T04:20:32;101773.91;;;-2.82;52.51
50268;BME280;36153;50.960;6.220;2024-01-10T04:25:32;101770.47;;;-2.72;52.80
50268;BME280;36153;50.960;6.220;2024-01-10T04:30:33;101761.97;;;-2.72;52.61
50268;BME280;36153;50.960;6.220;2024-01-10T04:35:33;101769.97;;;-2.68;52.77
50268;BME280;36153;50.960;6.220;2024-01-10T04:40:33;101765.63;;;-2.69;53.08
50268;BME280;36153;50.960;6.220;2024-01-10T04:45:34;101758.09;;;-2.78;52.94
50268;BME280;36153;50.960;6.220;2024-01-10T04:50:34;101750.84;;;-2.83;52.98
50268;BME280;36153;50.960;6.220;2024-01-10T04:55:35;101751.59;;;-2.84;52.84
50268;BME280;36153;50.960;6.220;2024-01-10T05:00:35;101759.00;;;-2.77;52.73
50268;BME280;36153;50.960;6.220;2024-01-10T05:05:36;101766.19;;;-2.63;52.92
50268;BME280;36153;50.960;6.220;2024-01-10T05:10:36;101769.22;;;-2.57;53.22
50268;BME280;36153;50.960;6.220;2024-01-10T05:15:36;101766.84;;;-2.45;52.87
50268;BME280;36153;50.960;6.220;2024-01-10T05:20:36;101771.78;;;-2.67;53.04
50268;BME280;36153;50.960;6.220;2024-01-10T05:25:36;101763.94;;;-2.89;53.43
50268;BME280;36153;50.960;6.220;2024-01-10T05:30:37;101763.19;;;-2.88;53.84
50268;BME280;36153;50.960;6.220;2024-01-10T05:35:40;101765.75;;;-2.88;54.08
50268;BME280;36153;50.960;6.220;2024-01-10T05:40:40;101762.16;;;-2.90;53.81
50268;BME280;36153;50.960;6.220;2024-01-10T05:45:41;101762.25;;;-2.99;53.51
50268;BME280;36153;50.960;6.220;2024-01-10T05:50:41;101769.78;;;-3.00;53.30
50268;BME280;36153;50.960;6.220;2024-01-10T05:55:41;101770.28;;;-2.94;53.39
50268;BME280;36153;50.960;6.220;2024-01-10T06:00:41;101764.31;;;-2.95;53.29
50268;BME280;36153;50.960;6.220;2024-01-10T06:05:42;101771.16;;;-3.04;53.48
50268;BME280;36153;50.960;6.220;2024-01-10T06:10:42;101773.81;;;-3.13;53.73
50268;BME280;36153;50.960;6.220;2024-01-10T06:15:42;101751.91;;;-3.11;53.83
50268;BME280;36153;50.960;6.220;2024-01-10T06:20:43;101752.03;;;-3.09;53.83
50268;BME280;36153;50.960;6.220;2024-01-10T06:25:43;101747.84;;;-2.98;53.23
50268;BME280;36153;50.960;6.220;2024-01-10T06:30:44;101757.97;;;-3.19;54.04
50268;BME280;36153;50.960;6.220;2024-01-10T06:35:45;101752.75;;;-3.20;54.14
50268;BME280;36153;50.960;6.220;2024-01-10T06:40:45;101746.16;;;-3.18;54.66
50268;BME280;36153;50.960;6.220;2024-01-10T06:45:47;101754.16;;;-3.24;54.85
50268;BME280;36153;50.960;6.220;2024-01-10T06:50:48;101751.16;;;-2.99;54.07
50268;BME280;36153;50.960;6.220;2024-01-10T06:55:48;101742.75;;;-2.98;54.17
50268;BME280;36153;50.960;6.220;2024-01-10T07:00:48;101746.75;;;-2.92;54.41
50268;BME280;36153;50.960;6.220;2024-01-10T07:05:50;101748.22;;;-3.04;54.48
50268;BME280;36153;50.960;6.220;2024-01-10T07:10:50;101742.38;;;-3.03;54.39
50268;BME280;36153;50.960;6.220;2024-01-10T07:15:51;101754.13;;;-2.95;54.30
50268;BME280;36153;50.960;6.220;2024-01-10T07:20:52;101750.53;;;-3.07;54.39
50268;BME280;36153;50.960;6.220;2024-01-10T07:25:53;101763.03;;;-2.89;53.94
50268;BME280;36153;50.960;6.220;2024-01-10T07:30:53;101758.59;;;-2.82;53.84
50268;BME280;36153;50.960;6.220;2024-01-10T07:35:54;101767.81;;;-2.63;54.01
50268;BME280;36153;50.960;6.220;2024-01-10T07:40:55;101773.31;;;-2.59;53.67
50268;BME280;36153;50.960;6.220;2024-01-10T07:45:55;101765.13;;;-2.65;53.86
50268;BME280;36153;50.960;6.220;2024-01-10T07:50:55;101765.69;;;-2.59;53.78
50268;BME280;36153;50.960;6.220;2024-01-10T07:55:56;101783.66;;;-2.57;54.06
50268;BME280;36153;50.960;6.220;2024-01-10T08:00:57;101784.03;;;-2.52;54.11
50268;BME280;36153;50.960;6.220;2024-01-10T08:05:57;101783.78;;;-2.55;54.13
50268;BME280;36153;50.960;6.220;2024-01-10T08:10:57;101790.78;;;-2.53;54.24
50268;BME280;36153;50.960;6.220;2024-01-10T08:15:58;101793.84;;;-2.57;54.10
50268;BME280;36153;50.960;6.220;2024-01-10T08:20:58;101797.53;;;-2.64;53.90
50268;BME280;36153;50.960;6.220;2024-01-10T08:25:58;101792.59;;;-2.52;53.51
50268;BME280;36153;50.960;6.220;2024-01-10T08:30:58;101792.59;;;-2.42;53.10
50268;BME280;36153;50.960;6.220;2024-01-10T08:35:59;101788.13;;;-2.34;52.87
50268;BME280;36153;50.960;6.220;2024-01-10T08:40:59;101786.88;;;-2.39;53.00
50268;BME280;36153;50.960;6.220;2024-01-10T08:45:59;101790.97;;;-2.31;52.73
50268;BME280;36153;50.960;6.220;2024-01-10T08:51:00;101790.31;;;-2.18;52.96
50268;BME280;36153;50.960;6.220;2024-01-10T08:56:01;101794.53;;;-2.18;52.93
50268;BME280;36153;50.960;6.220;2024-01-10T09:01:01;101797.31;;;-2.05;52.78
50268;BME280;36153;50.960;6.220;2024-01-10T09:06:01;101797.06;;;-1.98;52.90
50268;BME280;36153;50.960;6.220;2024-01-10T09:11:04;101805.50;;;-1.89;52.89
50268;BME280;36153;50.960;6.220;2024-01-10T09:16:04;101807.91;;;-1.80;52.64
50268;BME280;36153;50.960;6.220;2024-01-10T09:21:04;101813.66;;;-1.72;52.71
50268;BME280;36153;50.960;6.220;2024-01-10T09:26:05;101813.88;;;-1.69;52.40
50268;BME280;36153;50.960;6.220;2024-01-10T09:31:05;101803.94;;;-1.66;52.58
50268;BME280;36153;50.960;6.220;2024-01-10T09:36:07;101807.13;;;-1.68;52.56
50268;BME280;36153;50.960;6.220;2024-01-10T09:41:07;101818.22;;;-1.58;52.75
50268;BME280;36153;50.960;6.220;2024-01-10T09:46:08;101811.16;;;-1.40;52.99
50268;BME280;36153;50.960;6.220;2024-01-10T09:51:11;101817.91;;;-1.30;52.53
50268;BME280;36153;50.960;6.220;2024-01-10T09:56:12;101809.41;;;-1.08;52.52
50268;BME280;36153;50.960;6.220;2024-01-10T10:01:13;101807.53;;;-0.89;52.09
50268;BME280;36153;50.960;6.220;2024-01-10T10:06:13;101810.84;;;-0.90;51.28
50268;BME280;36153;50.960;6.220;2024-01-10T10:11:14;101805.63;;;-0.91;51.21
50268;BME280;36153;50.960;6.220;2024-01-10T10:16:23;101809.44;;;-0.86;50.21
50268;BME280;36153;50.960;6.220;2024-01-10T10:21:25;101807.44;;;-0.68;49.66
50268;BME280;36153;50.960;6.220;2024-01-10T10:26:32;101807.31;;;-0.70;49.93
50268;BME280;36153;50.960;6.220;2024-01-10T10:31:33;101805.00;;;-0.66;50.36
50268;BME280;36153;50.960;6.220;2024-01-10T10:36:33;101809.56;;;-0.62;50.47
50268;BME280;36153;50.960;6.220;2024-01-10T10:41:34;101800.53;;;-0.47;50.00
50268;BME280;36153;50.960;6.220;2024-01-10T10:46:35;101799.69;;;-0.36;49.66
50268;BME280;36153;50.960;6.220;2024-01-10T10:51:38;101796.81;;;-0.28;49.56
50268;BME280;36153;50.960;6.220;2024-01-10T10:56:38;101794.41;;;-0.15;49.70
50268;BME280;36153;50.960;6.220;2024-01-10T11:01:40;101791.97;;;-0.13;49.53
50268;BME280;36153;50.960;6.220;2024-01-10T11:06:41;101795.81;;;0.15;49.09
50268;BME280;36153;50.960;6.220;2024-01-10T11:22:36;101783.44;;;0.93;47.11
50268;BME280;36153;50.960;6.220;2024-01-10T11:27:40;101790.41;;;1.19;46.28
50268;BME280;36153;50.960;6.220;2024-01-10T11:32:43;101784.84;;;1.50;45.48
50268;BME280;36153;50.960;6.220;2024-01-10T11:37:45;101775.72;;;1.67;44.67
50268;BME280;36153;50.960;6.220;2024-01-10T11:42:45;101772.19;;;1.65;42.49
50268;BME280;36153;50.960;6.220;2024-01-10T11:47:49;101764.69;;;1.68;43.10
50268;BME280;36153;50.960;6.220;2024-01-10T11:52:53;101763.06;;;1.57;43.32
50268;BME280;36153;50.960;6.220;2024-01-10T11:58:07;101770.50;;;1.40;43.72
50268;BME280;36153;50.960;6.220;2024-01-10T12:03:11;101766.28;;;1.41;43.62
50268;BME280;36153;50.960;6.220;2024-01-10T12:08:11;101766.97;;;1.51;43.96
50268;BME280;36153;50.960;6.220;2024-01-10T12:13:12;101773.97;;;1.66;43.60
50268;BME280;36153;50.960;6.220;2024-01-10T12:18:12;101758.00;;;1.70;43.30
50268;BME280;36153;50.960;6.220;2024-01-10T12:23:12;101753.88;;;1.85;43.67
50268;BME280;36153;50.960;6.220;2024-01-10T12:28:16;101744.03;;;2.05;43.67
50268;BME280;36153;50.960;6.220;2024-01-10T12:33:16;101742.88;;;2.27;43.13
50268;BME280;36153;50.960;6.220;2024-01-10T12:38:18;101732.16;;;2.74;42.82
50268;BME280;36153;50.960;6.220;2024-01-10T12:43:18;101728.03;;;2.63;41.91
50268;BME280;36153;50.960;6.220;2024-01-10T12:48:19;101717.31;;;2.97;42.96
50268;BME280;36153;50.960;6.220;2024-01-10T12:53:19;101733.63;;;2.97;41.83
50268;BME280;36153;50.960;6.220;2024-01-10T12:58:19;101734.03;;;3.18;40.74
50268;BME280;36153;50.960;6.220;2024-01-10T13:03:19;101739.47;;;3.51;41.37
50268;BME280;36153;50.960;6.220;2024-01-10T13:08:20;101729.44;;;3.41;40.25
50268;BME280;36153;50.960;6.220;2024-01-10T13:13:20;101741.00;;;3.63;40.29
50268;BME280;36153;50.960;6.220;2024-01-10T13:18:21;101736.84;;;3.65;40.38
50268;BME280;36153;50.960;6.220;2024-01-10T13:23:22;101736.22;;;3.69;40.34
50268;BME280;36153;50.960;6.220;2024-01-10T13:28:23;101742.00;;;3.65;40.18
50268;BME280;36153;50.960;6.220;2024-01-10T13:33:23;101746.88;;;3.75;40.21
50268;BME280;36153;50.960;6.220;2024-01-10T13:38:25;101741.78;;;3.62;40.50
50268;BME280;36153;50.960;6.220;2024-01-10T13:43:26;101744.13;;;3.72;40.19
50268;BME280;36153;50.960;6.220;2024-01-10T13:48:26;101751.09;;;4.18;39.71
50268;BME280;36153;50.960;6.220;2024-01-10T13:53:27;101747.34;;;4.13;38.82
50268;BME280;36153;50.960;6.220;2024-01-10T13:58:27;101753.81;;;4.21;39.19
50268;BME280;36153;50.960;6.220;2024-01-10T14:03:28;101755.47;;;4.50;39.34
50268;BME280;36153;50.960;6.220;2024-01-10T14:08:28;101744.25;;;4.65;39.09
50268;BME280;36153;50.960;6.220;2024-01-10T14:13:29;101753.97;;;4.85;39.59
50268;BME280;36153;50.960;6.220;2024-01-10T14:18:29;101746.09;;;4.67;39.20
50268;BME280;36153;50.960;6.220;2024-01-10T14:23:29;101743.56;;;4.84;38.92
50268;BME280;36153;50.960;6.220;2024-01-10T14:28:29;101741.22;;;4.72;38.38
50268;BME280;36153;50.960;6.220;2024-01-10T14:33:30;101740.84;;;4.81;38.98
50268;BME280;36153;50.960;6.220;2024-01-10T14:38:31;101746.81;;;4.65;38.47
50268;BME280;36153;50.960;6.220;2024-01-10T14:43:31;101752.69;;;4.62;38.71
50268;BME280;36153;50.960;6.220;2024-01-10T14:48:32;101754.94;;;4.41;37.50
50268;BME280;36153;50.960;6.220;2024-01-10T14:53:33;101759.38;;;4.58;39.43
50268;BME280;36153;50.960;6.220;2024-01-10T14:58:35;101758.59;;;4.44;39.29
50268;BME280;36153;50.960;6.220;2024-01-10T15:03:35;101766.25;;;4.43;39.25
50268;BME280;36153;50.960;6.220;2024-01-10T15:08:36;101775.03;;;3.87;39.07
50268;BME280;36153;50.960;6.220;2024-01-10T15:13:37;101773.03;;;4.11;40.38
50268;BME280;36153;50.960;6.220;2024-01-10T15:18:39;101780.53;;;3.78;39.24
50268;BME280;36153;50.960;6.220;2024-01-10T15:23:39;101800.31;;;3.92;40.65
50268;BME280;36153;50.960;6.220;2024-01-10T15:28:39;101795.13;;;3.78;40.37
50268;BME280;36153;50.960;6.220;2024-01-10T15:33:39;101804.69;;;3.37;41.03
50268;BME280;36153;50.960;6.220;2024-01-10T15:38:42;101811.41;;;3.35;41.52
50268;BME280;36153;50.960;6.220;2024-01-10T15:43:42;101816.28;;;3.17;42.63
50268;BME280;36153;50.960;6.220;2024-01-10T15:48:42;101819.38;;;2.98;42.16
50268;BME280;36153;50.960;6.220;2024-01-10T15:53:43;101819.41;;;2.71;42.68
50268;BME280;36153;50.960;6.220;2024-01-10T15:58:46;101818.50;;;2.57;42.95
50268;BME280;36153;50.960;6.220;2024-01-10T16:03:46;101812.28;;;2.40;43.75
50268;BME280;36153;50.960;6.220;2024-01-10T16:08:46;101805.00;;;2.21;43.92
50268;BME280;36153;50.960;6.220;2024-01-10T16:13:47;101810.97;;;2.20;44.27
50268;BME280;36153;50.960;6.220;2024-01-10T16:18:47;101814.38;;;2.07;44.91
50268;BME280;36153;50.960;6.220;2024-01-10T16:23:47;101819.31;;;2.04;45.23
50268;BME280;36153;50.960;6.220;2024-01-10T16:28:48;101820.75;;;1.87;45.64
50268;BME280;36153;50.960;6.220;2024-01-10T16:33:49;101810.94;;;1.81;45.95
50268;BME280;36153;50.960;6.220;2024-01-10T16:38:50;101817.13;;;1.72;45.24
50268;BME280;36153;50.960;6.220;2024-01-10T16:43:51;101821.53;;;1.61;45.93
50268;BME280;36153;50.960;6.220;2024-01-10T16:48:52;101819.91;;;1.49;46.47
50268;BME280;36153;50.960;6.220;2024-01-10T16:53:52;101811.44;;;1.39;47.34
50268;BME280;36153;50.960;6.220;2024-01-10T16:58:52;101808.00;;;1.26;47.37
50268;BME280;36153;50.960;6.220;2024-01-10T17:03:53;101821.50;;;1.24;47.38
50268;BME280;36153;50.960;6.220;2024-01-10T17:08:55;101810.38;;;1.11;47.28
50268;BME280;36153;50.960;6.220;2024-01-10T17:13:56;101809.19;;;1.06;47.27
50268;BME280;36153;50.960;6.220;2024-01-10T17:18:56;101820.78;;;1.01;47.64
50268;BME280;36153;50.960;6.220;2024-01-10T17:23:56;101820.56;;;0.98;47.78
50268;BME280;36153;50.960;6.220;2024-01-10T17:28:58;101823.03;;;0.96;47.51
50268;BME280;36153;50.960;6.220;2024-01-10T17:33:58;101830.16;;;0.89;47.96
50268;BME280;36153;50.960;6.220;2024-01-10T17:38:59;101829.06;;;0.85;48.16
50268;BME280;36153;50.960;6.220;2024-01-10T17:43:59;101839.72;;;0.79;48.50
50268;BME280;36153;50.960;6.220;2024-01-10T17:49:00;101836.31;;;0.67;48.87
50268;BME280;36153;50.960;6.220;2024-01-10T17:54:00;101838.41;;;0.61;49.09
50268;BME280;36153;50.960;6.220;2024-01-10T17:59:01;101848.22;;;0.55;49.31
50268;BME280;36153;50.960;6.220;2024-01-10T18:04:01;101848.53;;;0.47;49.67
50268;BME280;36153;50.960;6.220;2024-01-10T18:09:02;101853.13;;;0.52;49.93
50268;BME280;36153;50.960;6.220;2024-01-10T18:14:03;101855.75;;;0.41;50.16
50268;BME280;36153;50.960;6.220;2024-01-10T18:19:03;101852.66;;;0.33;50.81
50268;BME280;36153;50.960;6.220;2024-01-10T18:24:04;101853.16;;;0.17;51.09
50268;BME280;36153;50.960;6.220;2024-01-10T18:29:04;101846.44;;;-0.04;51.55
50268;BME280;36153;50.960;6.220;2024-01-10T18:34:04;101860.25;;;-0.24;52.13
50268;BME280;36153;50.960;6.220;2024-01-10T18:39:06;101862.44;;;-0.29;52.36
50268;BME280;36153;50.960;6.220;2024-01-10T18:44:06;101884.44;;;-0.31;52.75
50268;BME280;36153;50.960;6.220;2024-01-10T18:49:06;101881.06;;;-0.20;52.33
50268;BME280;36153;50.960;6.220;2024-01-10T18:54:07;101884.22;;;-0.12;51.99
50268;BME280;36153;50.960;6.220;2024-01-10T18:59:10;101891.25;;;-0.09;51.44
50268;BME280;36153;50.960;6.220;2024-01-10T19:04:10;101904.34;;;-0.16;51.22
50268;BME280;36153;50.960;6.220;2024-01-10T19:09:11;101902.56;;;-0.18;51.40
50268;BME280;36153;50.960;6.220;2024-01-10T19:14:11;101907.03;;;-0.15;51.44
50268;BME280;36153;50.960;6.220;2024-01-10T19:19:11;101906.22;;;0.08;51.36
50268;BME280;36153;50.960;6.220;2024-01-10T19:24:13;101903.00;;;0.11;51.36
50268;BME280;36153;50.960;6.220;2024-01-10T19:29:13;101909.47;;;0.06;51.41
50268;BME280;36153;50.960;6.220;2024-01-10T19:34:14;101914.75;;;-0.03;51.28
50268;BME280;36153;50.960;6.220;2024-01-10T19:39:14;101910.81;;;-0.10;52.16
50268;BME280;36153;50.960;6.220;2024-01-10T19:44:14;101916.50;;;-0.14;52.23
50268;BME280;36153;50.960;6.220;2024-01-10T19:49:15;101919.63;;;-0.28;52.55
50268;BME280;36153;50.960;6.220;2024-01-10T19:54:16;101925.56;;;-0.40;53.10
50268;BME280;36153;50.960;6.220;2024-01-10T19:59:16;101924.50;;;-0.54;53.55
50268;BME280;36153;50.960;6.220;2024-01-10T20:04:16;101935.53;;;-0.65;54.03
50268;BME280;36153;50.960;6.220;2024-01-10T20:09:17;101933.63;;;-0.67;54.06
50268;BME280;36153;50.960;6.220;2024-01-10T20:14:17;101944.00;;;-0.76;54.20
50268;BME280;36153;50.960;6.220;2024-01-10T20:19:17;101946.94;;;-0.72;54.33
50268;BME280;36153;50.960;6.220;2024-01-10T20:24:18;101949.78;;;-0.79;54.44
50268;BME280;36153;50.960;6.220;2024-01-10T20:29:18;101946.16;;;-0.71;54.32
50268;BME280;36153;50.960;6.220;2024-01-10T20:34:18;101951.81;;;-0.75;54.16
50268;BME280;36153;50.960;6.220;2024-01-10T20:39:18;101949.53;;;-0.82;54.40
50268;BME280;36153;50.960;6.220;2024-01-10T20:44:19;101953.09;;;-0.80;54.04
50268;BME280;36153;50.960;6.220;2024-01-10T20:49:19;101947.56;;;-0.74;53.84
50268;BME280;36153;50.960;6.220;2024-01-10T20:54:19;101946.69;;;-0.75;54.07
50268;BME280;36153;50.960;6.220;2024-01-10T20:59:19;101937.38;;;-0.84;53.90
50268;BME280;36153;50.960;6.220;2024-01-10T21:04:20;101939.94;;;-0.95;53.85
50268;BME280;36153;50.960;6.220;2024-01-10T21:09:20;101932.84;;;-1.09;54.29
50268;BME280;36153;50.960;6.220;2024-01-10T21:14:20;101930.94;;;-1.22;54.15
50268;BME280;36153;50.960;6.220;2024-01-10T21:19:21;101929.78;;;-1.26;54.97
50268;BME280;36153;50.960;6.220;2024-01-10T21:24:21;101951.25;;;-1.34;55.23
50268;BME280;36153;50.960;6.220;2024-01-10T21:29:21;101936.94;;;-1.22;54.96
50268;BME280;36153;50.960;6.220;2024-01-10T21:34:22;101946.66;;;-1.28;54.31
50268;BME280;36153;50.960;6.220;2024-01-10T21:39:23;101957.41;;;-1.32;54.79
50268;BME280;36153;50.960;6.220;2024-01-10T21:44:24;101959.44;;;-1.28;54.79
50268;BME280;36153;50.960;6.220;2024-01-10T21:49:24;101966.31;;;-1.16;54.61
50268;BME280;36153;50.960;6.220;2024-01-10T21:54:25;101964.28;;;-1.21;54.32
50268;BME280;36153;50.960;6.220;2024-01-10T21:59:25;101976.41;;;-1.28;54.13
50268;BME280;36153;50.960;6.220;2024-01-10T22:04:25;101978.59;;;-1.33;54.09
50268;BME280;36153;50.960;6.220;2024-01-10T22:09:26;101977.81;;;-1.42;54.04
50268;BME280;36153;50.960;6.220;2024-01-10T22:14:27;101987.28;;;-1.51;54.40
50268;BME280;36153;50.960;6.220;2024-01-10T22:19:27;101989.31;;;-1.37;54.68
50268;BME280;36153;50.960;6.220;2024-01-10T22:24:27;101990.50;;;-1.33;54.53
50268;BME280;36153;50.960;6.220;2024-01-10T22:29:28;101995.84;;;-1.30;54.17
50268;BME280;36153;50.960;6.220;2024-01-10T22:34:28;101982.56;;;-1.26;53.52
50268;BME280;36153;50.960;6.220;2024-01-10T22:39:28;101992.66;;;-1.28;53.97
50268;BME280;36153;50.960;6.220;2024-01-10T22:44:29;101999.94;;;-1.22;53.96
50268;BME280;36153;50.960;6.220;2024-01-10T22:49:29;102009.41;;;-1.21;54.24
50268;BME280;36153;50.960;6.220;2024-01-10T22:54:29;102006.31;;;-1.38;54.66
50268;BME280;36153;50.960;6.220;2024-01-10T22:59:29;102018.19;;;-1.38;54.83
50268;BME280;36153;50.960;6.220;2024-01-10T23:04:30;102024.31;;;-1.36;54.67
50268;BME280;36153;50.960;6.220;2024-01-10T23:09:30;102021.13;;;-1.33;54.36
50268;BME280;36153;50.960;6.220;2024-01-10T23:14:32;102017.16;;;-1.40;54.30
50268;BME280;36153;50.960;6.220;2024-01-10T23:19:33;102016.38;;;-1.49;54.58
50268;BME280;36153;50.960;6.220;2024-01-10T23:24:33;102018.69;;;-1.42;54.57
50268;BME280;36153;50.960;6.220;2024-01-10T23:29:34;102017.91;;;-1.31;54.85
50268;BME280;36153;50.960;6.220;2024-01-10T23:34:34;102023.31;;;-1.28;54.20
50268;BME280;36153;50.960;6.220;2024-01-10T23:39:34;102021.91;;;-1.34;54.49
50268;BME280;36153;50.960;6.220;2024-01-10T23:44:34;102016.53;;;-1.38;54.92
50268;BME280;36153;50.960;6.220;2024-01-10T23:49:35;102018.44;;;-1.45;55.12
50268;BME280;36153;50.960;6.220;2024-01-10T23:54:35;102019.97;;;-1.27;55.12
50268;BME280;36153;50.960;6.220;2024-01-10T23:59:37;102029.56;;;-1.34;54.97
